createdAt,value
2023-01-13T00:08:52.059Z,98248.46
2023-01-13T00:29:05.681Z,98244.63
2023-01-13T00:39:13.113Z,98241.00
2023-01-13T00:49:33.699Z,98244.96
2023-01-13T01:09:47.088Z,98233.89
2023-01-13T01:30:00.732Z,98209.48
2023-01-13T01:40:09.717Z,98202.73
2023-01-13T01:50:18.298Z,98181.11
2023-01-13T02:00:27.044Z,98178.52
2023-01-13T02:10:34.751Z,98167.23
2023-01-13T02:20:58.349Z,98158.06
2023-01-13T02:31:23.728Z,98154.45
2023-01-13T02:41:50.889Z,98139.00
2023-01-13T02:52:00.179Z,98134.70
2023-01-13T03:02:10.560Z,98123.40
2023-01-13T03:12:22.476Z,98116.77
2023-01-13T03:22:28.749Z,98108.27
2023-01-13T03:32:36.945Z,98104.86
2023-01-13T03:42:47.345Z,98098.27
2023-01-13T03:52:58.424Z,98089.72
2023-01-13T04:03:10.969Z,98103.06
2023-01-13T04:13:20.326Z,98099.38
2023-01-13T04:23:28.059Z,98105.52
2023-01-13T04:33:35.475Z,98094.04
2023-01-13T04:43:43.385Z,98083.30
2023-01-13T04:53:52.498Z,98074.49
2023-01-13T05:03:59.728Z,98078.39
2023-01-13T05:14:24.430Z,98082.77
2023-01-13T05:24:49.082Z,98089.30
2023-01-13T05:34:56.303Z,98090.47
2023-01-13T05:45:03.638Z,98093.73
2023-01-13T05:55:10.672Z,98095.27
2023-01-13T06:05:18.034Z,98095.63
2023-01-13T06:15:26.074Z,98100.80
2023-01-13T06:25:32.043Z,98102.48
2023-01-13T06:35:41.015Z,98098.16
2023-01-13T06:45:46.731Z,98103.14
2023-01-13T06:55:54.015Z,98102.30
2023-01-13T07:06:02.353Z,98101.41
2023-01-13T07:16:11.023Z,98104.78
2023-01-13T07:26:18.633Z,98106.27
2023-01-13T07:36:25.910Z,98109.41
2023-01-13T07:46:33.168Z,98111.21
2023-01-13T07:56:37.650Z,98102.83
2023-01-13T08:06:44.882Z,98104.89
2023-01-13T08:16:49.396Z,98106.10
2023-01-13T08:26:56.688Z,98110.27
2023-01-13T08:37:03.890Z,98110.92
2023-01-13T08:47:11.315Z,98118.34
2023-01-13T08:57:18.793Z,98119.03
2023-01-13T09:07:25.950Z,98118.52
2023-01-13T09:17:33.002Z,98124.25
2023-01-13T09:27:40.813Z,98116.91
2023-01-13T09:37:46.758Z,98107.80
2023-01-13T09:47:56.033Z,98095.25
2023-01-13T09:58:02.690Z,98092.15
2023-01-13T10:08:12.149Z,98080.34
2023-01-13T10:18:19.378Z,98070.88
2023-01-13T10:28:26.670Z,98073.52
2023-01-13T10:38:40.277Z,98060.11
2023-01-13T10:48:56.087Z,98054.04
2023-01-13T10:59:21.391Z,98046.45
2023-01-13T11:09:31.298Z,98041.20
2023-01-13T11:19:43.144Z,98040.27
2023-01-13T11:29:52.330Z,98037.98
2023-01-13T11:40:01.706Z,98018.79
2023-01-13T11:50:19.729Z,98013.05
2023-01-13T12:00:48.883Z,98011.04
2023-01-13T12:10:57.178Z,98013.31
2023-01-13T12:21:14.910Z,98008.68
2023-01-13T12:31:23.587Z,97997.31
2023-01-13T12:41:32.657Z,97992.77
2023-01-13T12:52:03.609Z,97998.79
2023-01-13T13:02:27.697Z,97996.80
2023-01-13T13:13:17.532Z,97996.04
2023-01-13T13:24:03.200Z,98003.23
2023-01-13T13:34:13.094Z,98003.45
2023-01-13T13:44:35.494Z,98006.13
2023-01-13T14:04:48.501Z,98017.09
2023-01-13T14:14:55.441Z,98022.73
2023-01-13T14:25:02.891Z,98036.94
2023-01-13T14:35:10.564Z,98041.40
2023-01-13T14:45:25.068Z,98038.09
2023-01-13T14:55:34.524Z,98047.96
2023-01-13T15:05:49.851Z,98052.71
2023-01-13T15:15:57.242Z,98059.23
2023-01-13T15:26:04.211Z,98065.93
2023-01-13T15:36:16.292Z,98064.23
2023-01-13T15:46:41.687Z,98063.70
2023-01-13T15:56:49.649Z,98070.20
2023-01-13T16:06:57.459Z,98071.54
2023-01-13T16:17:03.806Z,98078.55
2023-01-13T16:27:13.768Z,98079.95
2023-01-13T16:37:19.915Z,98088.21
2023-01-13T16:47:26.168Z,98102.78
2023-01-13T16:57:32.307Z,98103.39
2023-01-13T17:07:39.951Z,98111.65
2023-01-13T17:17:47.175Z,98120.39
2023-01-13T17:27:54.481Z,98126.43
2023-01-13T17:38:02.272Z,98129.30
2023-01-13T17:48:07.387Z,98128.36
2023-01-13T17:58:14.429Z,98140.58
2023-01-13T18:08:21.231Z,98165.52
2023-01-13T18:18:28.246Z,98153.42
2023-01-13T18:28:35.881Z,98147.58
2023-01-13T18:38:42.954Z,98147.84
2023-01-13T18:48:50.151Z,98167.14
2023-01-13T18:58:57.682Z,98181.02
2023-01-13T19:09:05.576Z,98179.27
2023-01-13T19:19:12.882Z,98193.44
2023-01-13T19:29:20.101Z,98202.03
2023-01-13T19:39:27.437Z,98218.80
2023-01-13T19:49:35.451Z,98224.22
2023-01-13T19:59:43.044Z,98232.30
2023-01-13T20:09:50.498Z,98242.89
2023-01-13T20:19:59.084Z,98275.81
2023-01-13T20:30:09.781Z,98292.70
2023-01-13T20:40:16.009Z,98287.95
2023-01-13T20:50:23.383Z,98301.66
2023-01-13T21:00:30.478Z,98323.36
2023-01-13T21:10:37.624Z,98337.66
2023-01-13T21:20:44.734Z,98346.59
2023-01-13T21:30:52.937Z,98353.52
2023-01-13T21:40:58.459Z,98362.06
2023-01-13T21:51:05.683Z,98368.33
2023-01-13T22:01:12.904Z,98386.45
2023-01-13T22:11:20.260Z,98388.02
2023-01-13T22:21:27.456Z,98387.85
2023-01-13T22:31:35.434Z,98391.27
2023-01-13T22:41:42.543Z,98397.75
2023-01-13T22:51:49.895Z,98394.80
2023-01-13T23:01:57.355Z,98398.69
2023-01-13T23:12:04.394Z,98396.85
2023-01-13T23:22:13.206Z,98403.44
2023-01-13T23:32:20.736Z,98414.91
2023-01-13T23:42:27.997Z,98423.38
2023-01-13T23:52:34.798Z,98436.13
